Flinterbothnia — PBLG — position and weather

sailwx.info

Track history (hours):
 
Tides and Currents Weather Stations Pressure Air Temp Water Temp Dewpoint Dewpoint Depression Visibility Wind Speed Wind Dir Waves Ship Positions

Flinterbothnia

Last reported at 2016-Sep-26 11:32 UTC. Time now 2016-Sep-26 12:15 UTC.
Position N 54°33' E 018°32'.

Length 82 m; draft 3.7 m.

Type: Cargo ship. MMSI: 244741000.

Date/timePositionNaut miles runAvg speedWind from/ knotsBaromVisibWave heightAir tempDewpointWater temp
2016-Sep-26 11:32N 54°33' E 018°32'0 0.0
2016-Sep-26 08:32N 54°33' E 018°32'0 0.0
2016-Sep-26 02:32N 54°33' E 018°32'0 0.0
2016-Sep-26 01:32N 54°33' E 018°32'0 0.0
2016-Sep-26 00:32N 54°33' E 018°32'0 0.0
2016-Sep-25 21:31N 54°33' E 018°32'0 0.0
2016-Sep-25 17:31N 54°33' E 018°32'0 0.0
2016-Sep-25 16:31N 54°33' E 018°32'0 0.0
2016-Sep-25 15:31N 54°33' E 018°32'0 0.0
2016-Sep-25 14:31N 54°33' E 018°32'0 0.0
2016-Sep-25 12:31N 54°33' E 018°32'0 0.0
2016-Sep-25 11:31N 54°33' E 018°32'0 0.0
2016-Sep-25 10:31N 54°33' E 018°32'0 0.0
2016-Sep-25 09:31N 54°33' E 018°32'0 0.0
2016-Sep-25 07:31N 54°33' E 018°32'0 0.0
2016-Sep-25 04:31N 54°33' E 018°32'0 0.0
2016-Sep-25 00:31N 54°33' E 018°32'0 0.0
2016-Sep-24 22:31N 54°33' E 018°32'0 0.0
2016-Sep-24 21:31N 54°33' E 018°32'0 0.0
2016-Sep-24 19:31N 54°33' E 018°32'0 0.0
2016-Sep-24 18:31N 54°33' E 018°32'0 0.0
2016-Sep-24 17:31N 54°33' E 018°32'0 0.0
2016-Sep-24 16:31N 54°33' E 018°32'0 0.0
2016-Sep-24 14:31N 54°33' E 018°32'0 0.0
2016-Sep-24 12:31N 54°33' E 018°32'0 0.0
2016-Sep-24 10:33N 54°33' E 018°32'0 0.0
2016-Sep-24 09:33N 54°33' E 018°32'0 0.0
2016-Sep-24 03:33N 54°33' E 018°32'0 0.0
2016-Sep-24 02:33N 54°33' E 018°32'0 0.0
2016-Sep-24 01:33N 54°33' E 018°32'0 0.0
2016-Sep-24 00:33N 54°33' E 018°32'0 0.0
2016-Sep-23 19:33N 54°33' E 018°32'0 0.0
2016-Sep-23 17:33N 54°33' E 018°32'0 0.0
2016-Sep-23 16:33N 54°33' E 018°32'0 0.0
2016-Sep-23 15:33N 54°33' E 018°32'0 0.0
2016-Sep-23 13:33N 54°33' E 018°32'0 0.0
2016-Sep-23 09:33N 54°33' E 018°32'0 0.0
2016-Sep-23 06:33N 54°33' E 018°32'0 0.0
2016-Sep-23 04:33N 54°33' E 018°32'0 0.0
2016-Sep-23 03:33N 54°33' E 018°32'0 0.0
2016-Sep-23 02:33N 54°33' E 018°32'0 0.0
2016-Sep-23 01:33N 54°33' E 018°32'0 0.0
2016-Sep-23 00:33N 54°33' E 018°32'0 0.0
2016-Sep-22 23:33N 54°33' E 018°32'0 0.0
2016-Sep-22 20:32N 54°33' E 018°32'0 0.0
2016-Sep-22 12:32N 54°33' E 018°32'0 0.0
2016-Sep-22 04:32N 54°33' E 018°32'0 0.0
2016-Sep-22 03:32N 54°33' E 018°32'0 0.0
2016-Sep-22 00:32N 54°33' E 018°32'0 0.0
2016-Sep-21 23:32N 54°32' E 018°32'0 0.0
2016-Sep-21 22:32N 54°33' E 018°32'0 0.0
2016-Sep-21 19:32N 54°33' E 018°32'0 0.0
2016-Sep-21 16:32N 54°33' E 018°32'0 0.0
2016-Sep-21 09:31N 54°33' E 018°32'0 0.0
2016-Sep-21 08:31N 54°33' E 018°32'0 0.0
2016-Sep-21 05:31N 54°33' E 018°32'0 0.0
2016-Sep-21 03:31N 54°33' E 018°32'0 0.0
2016-Sep-21 02:31N 54°33' E 018°32'0 0.0
2016-Sep-20 17:31N 54°33' E 018°32'0 0.0
2016-Sep-20 14:31N 54°33' E 018°32'0 0.0
2016-Sep-20 13:31N 54°33' E 018°32'0 0.0
2016-Sep-20 10:31N 54°32' E 018°32'0 0.0
2016-Sep-20 08:31N 54°32' E 018°32'0 0.0
2016-Sep-20 07:31N 54°32' E 018°32'0 0.0
2016-Sep-20 06:31N 54°32' E 018°32'2 0.6
2016-Sep-20 02:33N 54°32' E 018°35'0 0.0
2016-Sep-19 23:33N 54°32' E 018°35'0 0.0
2016-Sep-19 19:33N 54°32' E 018°35'2 2.2
2016-Sep-19 18:33N 54°32' E 018°39'13 6.4
2016-Sep-19 16:33N 54°43' E 018°51'15 7.3
2016-Sep-19 14:33N 54°51' E 018°30'8 7.8
2016-Sep-19 13:33N 54°53' E 018°16'104 8.0
2016-Sep-19 00:33N 54°52' E 015°16'40 8.0
2016-Sep-18 19:33N 54°58' E 014°08'34 8.4
2016-Sep-18 15:28N 55°10' E 013°12'7 7.9
2016-Sep-18 14:33N 55°13' E 012°60'26 6.5
2016-Sep-18 10:33N 55°37' E 012°42'9 9.0
2016-Sep-18 09:33N 55°46' E 012°41'58 8.3
2016-Sep-18 02:33N 56°38' E 011°54'9 9.1
2016-Sep-18 01:33N 56°47' E 011°50'9 9.0
2016-Sep-18 00:33N 56°55' E 011°44'17 8.6
2016-Sep-17 22:33N 57°11' E 011°33'1010.0
2016-Sep-17 21:33N 57°21' E 011°27'8 7.5
2016-Sep-17 20:27N 57°28' E 011°21'11 9.0
2016-Sep-17 19:16N 57°36' E 011°06'  
Track history (hours):
 
Tides and Currents Weather Stations Pressure Air Temp Water Temp Dewpoint Dewpoint Depression Visibility Wind Speed Wind Dir Waves Ship Positions

Flinterbothnia

Last reported at 2016-Sep-26 11:32 UTC. Time now 2016-Sep-26 12:15 UTC.
Position N 54°33' E 018°32'.

Length 82 m; draft 3.7 m.

Type: Cargo ship. MMSI: 244741000.

Date/timePositionNaut miles runAvg speedWind from/ knotsBaromVisibWave heightAir tempDewpointWater temp
2016-Sep-26 11:32N 54°33' E 018°32'0 0.0
2016-Sep-26 08:32N 54°33' E 018°32'0 0.0
2016-Sep-26 02:32N 54°33' E 018°32'0 0.0
2016-Sep-26 01:32N 54°33' E 018°32'0 0.0
2016-Sep-26 00:32N 54°33' E 018°32'0 0.0
2016-Sep-25 21:31N 54°33' E 018°32'0 0.0
2016-Sep-25 17:31N 54°33' E 018°32'0 0.0
2016-Sep-25 16:31N 54°33' E 018°32'0 0.0
2016-Sep-25 15:31N 54°33' E 018°32'0 0.0
2016-Sep-25 14:31N 54°33' E 018°32'0 0.0
2016-Sep-25 12:31N 54°33' E 018°32'0 0.0
2016-Sep-25 11:31N 54°33' E 018°32'0 0.0
2016-Sep-25 10:31N 54°33' E 018°32'0 0.0
2016-Sep-25 09:31N 54°33' E 018°32'0 0.0
2016-Sep-25 07:31N 54°33' E 018°32'0 0.0
2016-Sep-25 04:31N 54°33' E 018°32'0 0.0
2016-Sep-25 00:31N 54°33' E 018°32'0 0.0
2016-Sep-24 22:31N 54°33' E 018°32'0 0.0
2016-Sep-24 21:31N 54°33' E 018°32'0 0.0
2016-Sep-24 19:31N 54°33' E 018°32'0 0.0
2016-Sep-24 18:31N 54°33' E 018°32'0 0.0
2016-Sep-24 17:31N 54°33' E 018°32'0 0.0
2016-Sep-24 16:31N 54°33' E 018°32'0 0.0
2016-Sep-24 14:31N 54°33' E 018°32'0 0.0
2016-Sep-24 12:31N 54°33' E 018°32'0 0.0
2016-Sep-24 10:33N 54°33' E 018°32'0 0.0
2016-Sep-24 09:33N 54°33' E 018°32'0 0.0
2016-Sep-24 03:33N 54°33' E 018°32'0 0.0
2016-Sep-24 02:33N 54°33' E 018°32'0 0.0
2016-Sep-24 01:33N 54°33' E 018°32'0 0.0
2016-Sep-24 00:33N 54°33' E 018°32'0 0.0
2016-Sep-23 19:33N 54°33' E 018°32'0 0.0
2016-Sep-23 17:33N 54°33' E 018°32'0 0.0
2016-Sep-23 16:33N 54°33' E 018°32'0 0.0
2016-Sep-23 15:33N 54°33' E 018°32'0 0.0
2016-Sep-23 13:33N 54°33' E 018°32'0 0.0
2016-Sep-23 09:33N 54°33' E 018°32'0 0.0
2016-Sep-23 06:33N 54°33' E 018°32'0 0.0
2016-Sep-23 04:33N 54°33' E 018°32'0 0.0
2016-Sep-23 03:33N 54°33' E 018°32'0 0.0
2016-Sep-23 02:33N 54°33' E 018°32'0 0.0
2016-Sep-23 01:33N 54°33' E 018°32'0 0.0
2016-Sep-23 00:33N 54°33' E 018°32'0 0.0
2016-Sep-22 23:33N 54°33' E 018°32'0 0.0
2016-Sep-22 20:32N 54°33' E 018°32'0 0.0
2016-Sep-22 12:32N 54°33' E 018°32'0 0.0
2016-Sep-22 04:32N 54°33' E 018°32'0 0.0
2016-Sep-22 03:32N 54°33' E 018°32'0 0.0
2016-Sep-22 00:32N 54°33' E 018°32'0 0.0
2016-Sep-21 23:32N 54°32' E 018°32'0 0.0
2016-Sep-21 22:32N 54°33' E 018°32'0 0.0
2016-Sep-21 19:32N 54°33' E 018°32'0 0.0
2016-Sep-21 16:32N 54°33' E 018°32'0 0.0
2016-Sep-21 09:31N 54°33' E 018°32'0 0.0
2016-Sep-21 08:31N 54°33' E 018°32'0 0.0
2016-Sep-21 05:31N 54°33' E 018°32'0 0.0
2016-Sep-21 03:31N 54°33' E 018°32'0 0.0
2016-Sep-21 02:31N 54°33' E 018°32'0 0.0
2016-Sep-20 17:31N 54°33' E 018°32'0 0.0
2016-Sep-20 14:31N 54°33' E 018°32'0 0.0
2016-Sep-20 13:31N 54°33' E 018°32'0 0.0
2016-Sep-20 10:31N 54°32' E 018°32'0 0.0
2016-Sep-20 08:31N 54°32' E 018°32'0 0.0
2016-Sep-20 07:31N 54°32' E 018°32'0 0.0
2016-Sep-20 06:31N 54°32' E 018°32'2 0.6
2016-Sep-20 02:33N 54°32' E 018°35'0 0.0
2016-Sep-19 23:33N 54°32' E 018°35'0 0.0
2016-Sep-19 19:33N 54°32' E 018°35'2 2.2
2016-Sep-19 18:33N 54°32' E 018°39'13 6.4
2016-Sep-19 16:33N 54°43' E 018°51'15 7.3
2016-Sep-19 14:33N 54°51' E 018°30'8 7.8
2016-Sep-19 13:33N 54°53' E 018°16'104 8.0
2016-Sep-19 00:33N 54°52' E 015°16'40 8.0
2016-Sep-18 19:33N 54°58' E 014°08'34 8.4
2016-Sep-18 15:28N 55°10' E 013°12'7 7.9
2016-Sep-18 14:33N 55°13' E 012°60'26 6.5
2016-Sep-18 10:33N 55°37' E 012°42'9 9.0
2016-Sep-18 09:33N 55°46' E 012°41'58 8.3
2016-Sep-18 02:33N 56°38' E 011°54'9 9.1
2016-Sep-18 01:33N 56°47' E 011°50'9 9.0
2016-Sep-18 00:33N 56°55' E 011°44'17 8.6
2016-Sep-17 22:33N 57°11' E 011°33'1010.0
2016-Sep-17 21:33N 57°21' E 011°27'8 7.5
2016-Sep-17 20:27N 57°28' E 011°21'11 9.0
2016-Sep-17 19:16N 57°36' E 011°06'  

Dump ship's entire track history